createdAt,value
2022-12-12T00:01:50.768Z,18.65
2022-12-12T00:04:17.812Z,17.85
2022-12-12T00:06:44.785Z,19.83
2022-12-12T00:09:12.589Z,19.17
2022-12-12T00:11:39.851Z,21.10
2022-12-12T00:14:06.803Z,23.00
2022-12-12T00:16:33.832Z,25.75
2022-12-12T00:19:00.687Z,22.45
2022-12-12T00:21:29.506Z,21.50
2022-12-12T00:23:57.375Z,18.42
2022-12-12T00:26:31.437Z,20.95
2022-12-12T00:28:59.447Z,23.50
2022-12-12T00:31:26.714Z,18.63
2022-12-12T00:33:54.312Z,19.17
2022-12-12T00:36:27.778Z,20.17
2022-12-12T00:38:55.264Z,21.58
2022-12-12T00:41:22.998Z,18.98
2022-12-12T00:43:50.449Z,19.60
2022-12-12T00:46:21.507Z,17.55
2022-12-12T00:48:50.466Z,19.63
2022-12-12T00:51:19.542Z,16.95
2022-12-12T00:53:48.827Z,20.67
2022-12-12T00:56:17.148Z,17.45
2022-12-12T00:58:44.304Z,18.75
2022-12-12T01:01:21.530Z,18.10
2022-12-12T01:03:48.809Z,17.83
2022-12-12T01:06:15.710Z,17.88
2022-12-12T01:08:42.812Z,20.30
2022-12-12T01:11:12.155Z,18.30
2022-12-12T01:13:39.812Z,16.88
2022-12-12T01:16:07.256Z,18.70
2022-12-12T01:18:34.728Z,18.20
2022-12-12T01:21:01.747Z,15.95
2022-12-12T01:23:28.788Z,18.60
2022-12-12T01:26:08.086Z,16.13
2022-12-12T01:28:35.541Z,18.48
2022-12-12T01:31:02.442Z,19.80
2022-12-12T01:33:29.642Z,18.92
2022-12-12T01:35:57.218Z,17.75
2022-12-12T01:38:27.281Z,19.20
2022-12-12T01:40:54.676Z,20.27
2022-12-12T01:43:23.291Z,19.80
2022-12-12T01:46:00.121Z,18.55
2022-12-12T01:48:36.734Z,18.98
2022-12-12T01:51:14.826Z,22.67
2022-12-12T01:53:42.501Z,20.80
2022-12-12T01:56:14.226Z,20.50
2022-12-12T01:58:45.502Z,23.20
2022-12-12T02:01:13.185Z,21.20
2022-12-12T02:03:41.626Z,22.00
2022-12-12T02:06:13.020Z,21.17
2022-12-12T02:08:40.991Z,20.02
2022-12-12T02:11:07.857Z,23.60
2022-12-12T02:13:35.902Z,24.25
2022-12-12T02:16:31.947Z,21.23
2022-12-12T02:19:20.938Z,24.40
2022-12-12T02:21:53.707Z,22.00
2022-12-12T02:24:26.080Z,21.15
2022-12-12T02:27:13.997Z,22.25
2022-12-12T02:30:11.736Z,23.63
2022-12-12T02:32:58.417Z,23.77
2022-12-12T02:35:28.266Z,18.20
2022-12-12T02:38:07.506Z,21.40
2022-12-12T02:40:44.024Z,20.35
2022-12-12T02:43:14.094Z,20.65
2022-12-12T02:45:47.690Z,21.45
2022-12-12T02:48:20.316Z,24.85
2022-12-12T02:50:50.260Z,25.08
2022-12-12T02:53:22.479Z,25.95
2022-12-12T02:55:50.088Z,24.52
2022-12-12T02:58:19.654Z,25.27
2022-12-12T03:01:17.299Z,25.45
2022-12-12T03:04:25.107Z,23.10
2022-12-12T03:07:39.827Z,19.58
2022-12-12T03:10:17.683Z,15.70
2022-12-12T03:13:00.820Z,24.92
2022-12-12T03:16:03.183Z,22.15
2022-12-12T03:18:47.835Z,22.58
2022-12-12T03:21:25.407Z,19.73
2022-12-12T03:23:57.346Z,21.00
2022-12-12T03:26:35.692Z,23.80
2022-12-12T03:29:10.067Z,22.63
2022-12-12T03:31:41.708Z,21.55
2022-12-12T03:34:17.313Z,21.80
2022-12-12T03:36:49.519Z,22.10
2022-12-12T03:39:25.376Z,24.70
2022-12-12T03:42:00.211Z,27.17
2022-12-12T03:44:41.124Z,23.55
2022-12-12T03:47:19.608Z,28.30
2022-12-12T03:50:05.462Z,28.88
2022-12-12T03:53:08.520Z,23.60
2022-12-12T03:55:43.958Z,22.50
2022-12-12T03:58:10.749Z,25.90
2022-12-12T04:00:39.425Z,25.40
2022-12-12T04:03:11.611Z,23.02
2022-12-12T04:06:26.224Z,22.90
2022-12-12T04:09:18.917Z,27.83
2022-12-12T04:12:23.398Z,20.92
2022-12-12T04:15:17.816Z,23.35
2022-12-12T04:17:56.350Z,23.40
2022-12-12T04:20:57.066Z,23.27
2022-12-12T04:23:50.864Z,21.83
2022-12-12T04:26:40.871Z,22.90
2022-12-12T04:29:15.138Z,23.67
2022-12-12T04:34:23.820Z,23.95
2022-12-12T04:36:51.083Z,24.45
2022-12-12T04:39:20.995Z,23.27
2022-12-12T04:41:50.456Z,23.60
2022-12-12T04:44:19.876Z,28.13
2022-12-12T04:46:50.376Z,27.50
2022-12-12T04:49:24.216Z,26.85
2022-12-12T04:51:55.922Z,24.67
2022-12-12T04:54:34.864Z,22.45
2022-12-12T04:57:06.545Z,22.45
2022-12-12T04:59:34.079Z,26.33
2022-12-12T05:02:19.007Z,24.17
2022-12-12T05:05:19.293Z,19.05
2022-12-12T05:08:00.441Z,20.02
2022-12-12T05:10:27.429Z,22.23
2022-12-12T05:12:58.847Z,21.77
2022-12-12T05:15:27.227Z,19.63
2022-12-12T05:18:01.280Z,20.00
2022-12-12T05:20:28.166Z,19.20
2022-12-12T05:22:54.950Z,19.90
2022-12-12T05:25:21.704Z,15.13
2022-12-12T05:27:48.753Z,19.02
2022-12-12T05:30:16.146Z,19.40
2022-12-12T05:32:43.128Z,20.80
2022-12-12T05:35:11.490Z,20.23
2022-12-12T05:37:39.043Z,20.27
2022-12-12T05:40:08.351Z,20.45
2022-12-12T05:42:35.371Z,18.70
2022-12-12T05:45:02.346Z,20.27
2022-12-12T05:47:29.174Z,19.38
2022-12-12T05:49:55.970Z,21.95
2022-12-12T05:52:22.870Z,20.00
2022-12-12T05:54:50.278Z,18.63
2022-12-12T05:57:18.958Z,19.92
2022-12-12T05:59:46.562Z,22.75
2022-12-12T06:02:14.382Z,20.77
2022-12-12T06:04:41.869Z,20.92
2022-12-12T06:07:09.076Z,18.92
2022-12-12T06:09:36.563Z,17.40
2022-12-12T06:12:03.589Z,19.92
2022-12-12T06:14:30.407Z,20.67
2022-12-12T06:16:57.311Z,18.55
2022-12-12T06:19:24.151Z,18.10
2022-12-12T06:21:51.102Z,20.55
2022-12-12T06:24:17.889Z,16.60
2022-12-12T06:26:44.731Z,20.60
2022-12-12T06:29:11.622Z,17.88
2022-12-12T06:31:38.517Z,18.92
2022-12-12T06:34:05.344Z,20.48
2022-12-12T06:36:32.201Z,18.17
2022-12-12T06:39:00.483Z,20.23
2022-12-12T06:41:29.881Z,21.33
2022-12-12T06:43:56.923Z,21.27
2022-12-12T06:46:26.643Z,23.98
2022-12-12T06:48:55.128Z,22.60
2022-12-12T06:51:33.296Z,24.90
2022-12-12T06:54:00.328Z,24.58
2022-12-12T06:56:27.905Z,23.88
2022-12-12T06:58:55.653Z,23.02
2022-12-12T07:01:23.794Z,20.00
2022-12-12T07:03:51.848Z,21.15
2022-12-12T07:06:22.114Z,22.27
2022-12-12T07:08:49.561Z,19.50
2022-12-12T07:11:22.604Z,20.20
2022-12-12T07:13:50.270Z,22.42
2022-12-12T07:16:18.517Z,20.52
2022-12-12T07:18:45.800Z,23.52
2022-12-12T07:21:15.456Z,18.33
2022-12-12T07:23:42.386Z,17.27
2022-12-12T07:26:14.918Z,18.42
2022-12-12T07:28:41.792Z,18.83
2022-12-12T07:31:11.223Z,19.50
2022-12-12T07:33:43.628Z,21.08
2022-12-12T07:36:13.038Z,18.90
2022-12-12T07:38:40.587Z,20.60
2022-12-12T07:41:10.719Z,19.48
2022-12-12T07:43:43.330Z,18.92
2022-12-12T07:46:17.574Z,20.13
2022-12-12T07:48:44.921Z,13.43
2022-12-12T07:51:12.500Z,21.13
2022-12-12T07:53:39.377Z,23.80
2022-12-12T07:56:07.640Z,19.55
2022-12-12T07:58:35.540Z,17.10
2022-12-12T08:01:19.128Z,18.58
2022-12-12T08:03:47.500Z,17.77
2022-12-12T08:06:16.742Z,16.52
2022-12-12T08:08:44.482Z,21.55
2022-12-12T08:11:13.625Z,20.42
2022-12-12T08:13:41.653Z,23.55
2022-12-12T08:16:16.881Z,20.90
2022-12-12T08:18:44.396Z,18.70
2022-12-12T08:21:13.100Z,19.63
2022-12-12T08:23:41.139Z,19.40
2022-12-12T08:26:10.746Z,17.52
2022-12-12T08:28:37.833Z,20.20
2022-12-12T08:31:05.008Z,20.27
2022-12-12T08:33:31.938Z,19.65
2022-12-12T08:35:58.782Z,23.67
2022-12-12T08:38:26.845Z,20.00
2022-12-12T08:40:53.716Z,17.17
2022-12-12T08:43:20.499Z,20.13
2022-12-12T08:45:47.936Z,21.80
2022-12-12T08:48:14.741Z,18.85
2022-12-12T08:50:42.393Z,19.02
2022-12-12T08:53:09.365Z,19.27
2022-12-12T08:55:36.330Z,18.90
2022-12-12T08:58:03.141Z,20.40
2022-12-12T09:00:30.134Z,18.88
2022-12-12T09:02:57.307Z,20.77
2022-12-12T09:05:24.187Z,20.00
2022-12-12T09:07:51.133Z,22.45
2022-12-12T09:10:18.183Z,21.20
2022-12-12T09:12:45.056Z,23.10
2022-12-12T09:15:12.493Z,23.10
2022-12-12T09:17:40.182Z,22.40
2022-12-12T09:20:07.567Z,21.00
2022-12-12T09:22:34.411Z,20.33
2022-12-12T09:25:01.258Z,22.48
2022-12-12T09:27:28.198Z,22.23
2022-12-12T09:29:55.078Z,20.48
2022-12-12T09:32:24.548Z,21.30
2022-12-12T09:34:51.768Z,18.70
2022-12-12T09:37:18.750Z,21.38
2022-12-12T09:39:45.549Z,23.35
2022-12-12T09:42:24.841Z,22.17
2022-12-12T09:44:57.674Z,23.27
2022-12-12T09:47:43.432Z,21.73
2022-12-12T09:50:30.920Z,23.90
2022-12-12T09:53:04.724Z,26.00
2022-12-12T09:55:38.914Z,20.05
2022-12-12T10:00:38.506Z,18.92
2022-12-12T10:03:22.351Z,17.40
2022-12-12T10:09:34.420Z,19.65
2022-12-12T10:12:08.012Z,22.83
2022-12-12T10:14:48.237Z,20.08
2022-12-12T10:17:23.309Z,20.67
2022-12-12T10:19:54.627Z,19.58
2022-12-12T10:22:47.933Z,23.13
2022-12-12T10:25:25.517Z,24.50
2022-12-12T10:28:00.314Z,27.38
2022-12-12T10:30:30.273Z,25.35
2022-12-12T10:33:16.055Z,25.08
2022-12-12T10:36:08.989Z,24.67
2022-12-12T10:39:03.379Z,26.33
2022-12-12T10:41:52.779Z,23.80
2022-12-12T10:44:48.079Z,23.08
2022-12-12T10:47:15.217Z,26.50
2022-12-12T10:49:42.600Z,25.33
2022-12-12T10:52:18.564Z,27.80
2022-12-12T10:54:52.702Z,23.88
2022-12-12T10:59:54.001Z,19.55
2022-12-12T11:02:29.214Z,20.63
2022-12-12T11:05:05.388Z,19.70
2022-12-12T11:07:37.778Z,25.60
2022-12-12T11:10:14.203Z,21.38
2022-12-12T11:12:41.048Z,21.88
2022-12-12T11:15:17.105Z,21.20
2022-12-12T11:17:44.871Z,21.83
2022-12-12T11:20:18.418Z,26.17
2022-12-12T11:22:45.322Z,27.17
2022-12-12T11:25:31.641Z,24.25
2022-12-12T11:28:06.357Z,22.77
2022-12-12T11:30:39.397Z,26.98
2022-12-12T11:33:08.700Z,24.70
2022-12-12T11:35:45.569Z,22.67
2022-12-12T11:38:20.855Z,25.65
2022-12-12T11:40:59.488Z,22.20
2022-12-12T11:43:29.815Z,26.75
2022-12-12T11:46:08.215Z,22.92
2022-12-12T11:48:44.045Z,24.15
2022-12-12T11:51:11.674Z,25.05
2022-12-12T11:53:42.727Z,20.95
2022-12-12T11:56:45.803Z,22.67
2022-12-12T11:59:45.834Z,21.55
2022-12-12T12:02:50.178Z,24.58
2022-12-12T12:05:48.381Z,21.42
2022-12-12T12:08:35.226Z,21.00
2022-12-12T12:11:20.207Z,20.52
2022-12-12T12:14:01.969Z,24.95
2022-12-12T12:17:09.485Z,20.60
2022-12-12T12:19:54.249Z,18.08
2022-12-12T12:22:27.144Z,17.30
2022-12-12T12:25:13.066Z,17.30
2022-12-12T12:27:54.173Z,17.90
2022-12-12T12:30:23.397Z,18.85
2022-12-12T12:33:20.436Z,17.17
2022-12-12T12:36:05.158Z,19.20
2022-12-12T12:39:04.273Z,16.95
2022-12-12T12:41:37.002Z,17.00
2022-12-12T12:44:29.019Z,15.40
2022-12-12T12:47:17.417Z,16.10
2022-12-12T12:49:49.707Z,14.23
2022-12-12T12:52:19.654Z,24.05
2022-12-12T12:54:48.966Z,14.90
2022-12-12T12:57:39.019Z,18.25
2022-12-12T13:00:20.824Z,16.95
2022-12-12T13:03:06.242Z,18.20
2022-12-12T13:05:50.477Z,14.70
2022-12-12T13:08:29.161Z,16.67
2022-12-12T13:11:02.674Z,18.17
2022-12-12T13:13:31.843Z,16.73
2022-12-12T13:16:09.024Z,15.30
2022-12-12T13:18:45.903Z,16.10
2022-12-12T13:21:22.086Z,15.20
2022-12-12T13:24:03.674Z,17.00
2022-12-12T13:26:55.842Z,17.15
2022-12-12T13:29:35.475Z,17.25
2022-12-12T13:32:27.268Z,17.70
2022-12-12T13:34:58.376Z,18.40
2022-12-12T13:37:26.192Z,18.10
2022-12-12T13:40:01.989Z,16.35
2022-12-12T13:42:54.735Z,15.15
2022-12-12T13:45:39.618Z,18.77
2022-12-12T13:48:29.066Z,16.77
2022-12-12T13:51:31.076Z,14.70
2022-12-12T13:54:12.256Z,18.50
2022-12-12T13:56:46.674Z,13.98
2022-12-12T13:59:29.704Z,13.10
2022-12-12T14:02:01.572Z,17.83
2022-12-12T14:04:35.413Z,19.13
2022-12-12T14:07:25.583Z,20.60
2022-12-12T14:09:56.745Z,15.98
2022-12-12T14:12:31.387Z,18.95
2022-12-12T14:14:59.331Z,16.83
2022-12-12T14:17:32.466Z,21.30
2022-12-12T14:20:04.254Z,18.60
2022-12-12T14:22:37.384Z,17.75
2022-12-12T14:25:04.305Z,20.80
2022-12-12T14:28:02.767Z,20.13
2022-12-12T14:30:48.691Z,17.35
2022-12-12T14:33:37.386Z,17.15
2022-12-12T14:36:09.005Z,16.85
2022-12-12T14:39:03.402Z,21.10
2022-12-12T14:41:37.661Z,15.15
2022-12-12T14:46:53.867Z,18.92
2022-12-12T14:49:20.769Z,15.32
2022-12-12T14:51:52.097Z,17.60
2022-12-12T14:54:22.161Z,17.95
2022-12-12T14:56:53.939Z,18.67
2022-12-12T14:59:25.488Z,15.82
2022-12-12T15:01:59.447Z,19.48
2022-12-12T15:04:30.959Z,18.20
2022-12-12T15:06:59.907Z,19.75
2022-12-12T15:09:37.494Z,18.08
2022-12-12T15:12:10.619Z,17.65
2022-12-12T15:14:40.046Z,17.77
2022-12-12T15:17:19.448Z,20.50
2022-12-12T15:19:58.664Z,18.60
2022-12-12T15:22:29.954Z,17.52
2022-12-12T15:24:59.727Z,16.50
2022-12-12T15:27:47.077Z,17.58
2022-12-12T15:30:39.299Z,19.58
2022-12-12T15:33:17.607Z,14.18
2022-12-12T15:36:01.392Z,16.20
2022-12-12T15:38:29.434Z,16.27
2022-12-12T15:40:59.035Z,16.48
2022-12-12T15:43:30.569Z,17.55
2022-12-12T15:46:00.142Z,14.65
2022-12-12T15:48:27.807Z,17.67
2022-12-12T15:51:03.252Z,16.63
2022-12-12T15:53:31.931Z,17.55
2022-12-12T15:56:09.814Z,17.88
2022-12-12T15:58:41.432Z,15.23
2022-12-12T16:01:21.072Z,15.55
2022-12-12T16:04:00.748Z,14.27
2022-12-12T16:06:38.608Z,13.25
2022-12-12T16:09:11.438Z,14.13
2022-12-12T16:11:42.210Z,16.02
2022-12-12T16:14:41.628Z,16.60
2022-12-12T16:17:23.581Z,15.75
2022-12-12T16:20:02.460Z,14.77
2022-12-12T16:22:34.854Z,16.30
2022-12-12T16:25:25.653Z,16.33
2022-12-12T16:28:05.899Z,18.60
2022-12-12T16:30:33.403Z,14.15
2022-12-12T16:33:30.179Z,14.13
2022-12-12T16:36:00.432Z,13.20
2022-12-12T16:38:28.650Z,18.20
2022-12-12T16:40:57.721Z,15.65
2022-12-12T16:43:25.097Z,15.60
2022-12-12T16:45:56.100Z,16.67
2022-12-12T16:48:31.440Z,17.70
2022-12-12T16:51:05.496Z,23.20
2022-12-12T16:53:33.808Z,28.45
2022-12-12T16:56:02.124Z,18.80
2022-12-12T16:58:29.136Z,17.17
2022-12-12T17:00:56.354Z,37.67
2022-12-12T17:03:23.870Z,36.30
2022-12-12T17:05:51.582Z,38.63
2022-12-12T17:08:20.236Z,28.80
2022-12-12T17:10:48.868Z,25.70
2022-12-12T17:13:18.730Z,19.40
2022-12-12T17:15:46.517Z,17.85
2022-12-12T17:18:13.586Z,21.73
2022-12-12T17:20:41.087Z,16.33
2022-12-12T17:23:28.011Z,18.17
2022-12-12T17:26:02.582Z,16.38
2022-12-12T17:28:32.803Z,15.13
2022-12-12T17:31:00.440Z,19.08
2022-12-12T17:33:27.533Z,19.42
2022-12-12T17:36:05.534Z,19.08
2022-12-12T17:38:33.246Z,17.85
2022-12-12T17:41:04.876Z,18.50
2022-12-12T17:43:31.802Z,23.05
2022-12-12T17:46:08.247Z,16.65
2022-12-12T17:48:35.845Z,20.42
2022-12-12T17:51:05.518Z,28.67
2022-12-12T17:53:38.402Z,27.20
2022-12-12T17:56:09.823Z,26.48
2022-12-12T17:58:38.541Z,24.02
2022-12-12T18:01:10.534Z,22.13
2022-12-12T18:03:37.798Z,23.83
2022-12-12T18:06:05.046Z,30.52
2022-12-12T18:08:31.898Z,27.33
2022-12-12T18:10:58.791Z,24.15
2022-12-12T18:13:26.236Z,21.10
2022-12-12T18:15:59.830Z,21.00
2022-12-12T18:18:27.704Z,19.13
2022-12-12T18:20:54.511Z,19.75
2022-12-12T18:23:22.134Z,23.58
2022-12-12T18:25:49.080Z,20.88
2022-12-12T18:28:15.902Z,23.23
2022-12-12T18:30:42.807Z,19.00
2022-12-12T18:33:10.261Z,18.92
2022-12-12T18:35:37.300Z,20.10
2022-12-12T18:38:04.196Z,22.33
2022-12-12T18:40:31.185Z,25.05
2022-12-12T18:42:58.049Z,26.13
2022-12-12T18:45:24.988Z,27.67
2022-12-12T18:47:51.820Z,24.58
2022-12-12T18:50:19.289Z,22.52
2022-12-12T18:52:47.493Z,19.73
2022-12-12T18:55:14.544Z,24.80
2022-12-12T18:57:41.545Z,21.35
2022-12-12T19:00:08.847Z,25.17
2022-12-12T19:02:38.488Z,20.33
2022-12-12T19:05:06.964Z,20.90
2022-12-12T19:07:33.984Z,23.83
2022-12-12T19:10:00.809Z,22.95
2022-12-12T19:12:28.083Z,25.65
2022-12-12T19:17:42.793Z,23.15
2022-12-12T19:20:09.942Z,29.55
2022-12-12T19:22:52.039Z,22.85
2022-12-12T19:25:19.540Z,23.85
2022-12-12T19:27:46.781Z,25.38
2022-12-12T19:30:15.575Z,25.98
2022-12-12T19:32:43.060Z,23.00
2022-12-12T19:35:10.121Z,26.73
2022-12-12T19:37:37.320Z,26.55
2022-12-12T19:40:04.490Z,23.88
2022-12-12T19:42:31.341Z,24.42
2022-12-12T19:44:58.182Z,24.55
2022-12-12T19:47:25.628Z,24.00
2022-12-12T19:49:52.604Z,24.65
2022-12-12T19:52:19.873Z,27.27
2022-12-12T19:54:46.879Z,23.35
2022-12-12T19:57:14.072Z,23.95
2022-12-12T19:59:41.083Z,23.88
2022-12-12T20:02:09.537Z,23.83
2022-12-12T20:04:36.622Z,31.60
2022-12-12T20:07:03.491Z,24.90
2022-12-12T20:09:30.519Z,26.15
2022-12-12T20:12:00.459Z,25.17
2022-12-12T20:14:30.939Z,27.10
2022-12-12T20:16:58.508Z,25.50
2022-12-12T20:19:27.853Z,26.92
2022-12-12T20:22:01.298Z,23.80
2022-12-12T20:24:30.547Z,22.75
2022-12-12T20:26:57.446Z,23.17
2022-12-12T20:29:24.273Z,26.02
2022-12-12T20:31:51.354Z,24.15
2022-12-12T20:34:21.772Z,24.90
2022-12-12T20:36:50.271Z,24.27
2022-12-12T20:39:19.649Z,26.48
2022-12-12T20:41:46.902Z,23.65
2022-12-12T20:44:14.237Z,21.58
2022-12-12T20:46:43.447Z,22.95
2022-12-12T20:49:14.066Z,22.02
2022-12-12T20:51:57.888Z,25.15
2022-12-12T20:56:56.144Z,20.90
2022-12-12T20:59:23.862Z,24.02
2022-12-12T21:01:51.344Z,23.23
2022-12-12T21:04:18.338Z,26.90
2022-12-12T21:06:48.671Z,24.25
2022-12-12T21:09:22.700Z,21.20
2022-12-12T21:11:52.049Z,23.52
2022-12-12T21:14:18.863Z,26.90
2022-12-12T21:16:45.681Z,24.63
2022-12-12T21:19:14.256Z,27.70
2022-12-12T21:21:42.699Z,24.33
2022-12-12T21:24:12.272Z,29.52
2022-12-12T21:26:39.452Z,27.38
2022-12-12T21:29:06.517Z,24.58
2022-12-12T21:31:36.874Z,24.45
2022-12-12T21:34:05.959Z,22.65
2022-12-12T21:36:33.676Z,21.90
2022-12-12T21:39:05.075Z,21.70
2022-12-12T21:41:31.920Z,23.63
2022-12-12T21:44:01.496Z,24.23
2022-12-12T21:46:29.654Z,24.67
2022-12-12T21:49:16.599Z,29.40
2022-12-12T21:51:44.071Z,25.65
2022-12-12T21:54:13.345Z,26.25
2022-12-12T21:56:41.198Z,28.75
2022-12-12T21:59:08.564Z,26.08
2022-12-12T22:01:35.538Z,25.77
2022-12-12T22:04:03.214Z,26.85
2022-12-12T22:06:32.502Z,26.20
2022-12-12T22:09:02.276Z,24.35
2022-12-12T22:11:40.949Z,24.67
2022-12-12T22:14:17.558Z,26.15
2022-12-12T22:16:44.822Z,24.13
2022-12-12T22:19:13.511Z,21.77
2022-12-12T22:21:40.810Z,23.13
2022-12-12T22:24:07.952Z,23.77
2022-12-12T22:26:38.151Z,21.88
2022-12-12T22:29:11.201Z,21.70
2022-12-12T22:31:39.635Z,26.73
2022-12-12T22:34:15.900Z,23.73
2022-12-12T22:36:45.173Z,22.65
2022-12-12T22:39:18.459Z,22.80
2022-12-12T22:41:46.049Z,25.27
2022-12-12T22:44:18.005Z,25.63
2022-12-12T22:46:46.777Z,25.73
2022-12-12T22:49:16.011Z,25.73
2022-12-12T22:51:43.764Z,27.88
2022-12-12T22:54:10.974Z,26.80
2022-12-12T22:56:38.981Z,26.30
2022-12-12T22:59:06.878Z,26.98
2022-12-12T23:01:34.122Z,27.42
2022-12-12T23:04:01.118Z,27.60
2022-12-12T23:06:30.854Z,29.95
2022-12-12T23:09:04.017Z,27.95
2022-12-12T23:11:31.725Z,27.87
2022-12-12T23:14:07.706Z,27.55
2022-12-12T23:16:35.664Z,23.38
2022-12-12T23:19:04.436Z,23.67
2022-12-12T23:21:32.036Z,23.60
2022-12-12T23:23:58.852Z,23.20
2022-12-12T23:26:30.002Z,24.70
2022-12-12T23:28:58.807Z,21.48
2022-12-12T23:31:32.688Z,23.65
2022-12-12T23:34:02.316Z,20.20
2022-12-12T23:36:29.277Z,26.23
2022-12-12T23:38:58.306Z,22.90
2022-12-12T23:41:26.420Z,24.33
2022-12-12T23:43:54.021Z,22.95
2022-12-12T23:46:33.598Z,23.73
2022-12-12T23:49:06.621Z,23.52
2022-12-12T23:51:36.632Z,23.95
2022-12-12T23:54:05.692Z,21.63
2022-12-12T23:56:32.934Z,23.33
2022-12-12T23:59:00.624Z,21.58
